Time;durP1;ratioP1;P1;durP2;ratioP2;P2;SDS_P1;SDS_P2;PMS_P1;PMS_P2;Temp;Humidity;BMP_temperature;BMP_pressure;BME280_temperature;BME280_humidity;BME280_pressure;Samples;Min_cycle;Max_cycle;Signal;HPM_P1;HPM_P2
2021/05/01 00:00:14;;;;;;;29.30;24.23;;;4.80;89.70;;;;;;5056844;28;20203;-87
2021/05/01 00:02:39;;;;;;;35.20;26.30;;;4.80;89.70;;;;;;5055744;28;20175;-87
2021/05/01 00:05:06;;;;;;;31.67;25.43;;;4.80;89.80;;;;;;5057017;28;20221;-88
2021/05/01 00:07:32;;;;;;;32.90;26.30;;;4.80;89.90;;;;;;5056892;28;20172;-88
2021/05/01 00:09:57;;;;;;;33.73;26.80;;;4.80;90.00;;;;;;5056827;28;20638;-88
2021/05/01 00:12:23;;;;;;;34.67;27.37;;;4.80;90.00;;;;;;5056758;28;20186;-87
2021/05/01 00:14:49;;;;;;;37.40;28.43;;;4.90;90.10;;;;;;5055404;28;20189;-87
2021/05/01 00:17:14;;;;;;;33.97;28.17;;;4.90;90.20;;;;;;5056619;28;20182;-88
2021/05/01 00:19:40;;;;;;;31.40;26.17;;;5.00;90.30;;;;;;5055759;28;20190;-88
2021/05/01 00:22:06;;;;;;;33.47;26.67;;;4.90;90.30;;;;;;5055467;28;20184;-88
2021/05/01 00:24:31;;;;;;;37.67;28.50;;;5.00;90.40;;;;;;5056174;28;20232;-88
2021/05/01 00:26:57;;;;;;;35.50;28.13;;;5.00;90.50;;;;;;5055219;28;20575;-88
2021/05/01 00:29:22;;;;;;;33.60;27.50;;;5.10;90.60;;;;;;5056530;28;20190;-88
2021/05/01 00:31:48;;;;;;;35.97;28.33;;;5.10;90.60;;;;;;5055207;28;20180;-88
2021/05/01 00:34:14;;;;;;;36.20;29.23;;;5.10;90.60;;;;;;5055076;28;20187;-87
2021/05/01 00:36:40;;;;;;;34.33;27.57;;;5.10;90.70;;;;;;5056223;28;20219;-88
2021/05/01 00:39:06;;;;;;;37.27;29.73;;;5.20;90.80;;;;;;5056231;28;20255;-88
2021/05/01 00:41:32;;;;;;;35.47;28.87;;;5.30;90.80;;;;;;5055064;28;20180;-88
2021/05/01 00:43:58;;;;;;;38.43;27.27;;;5.30;90.80;;;;;;5056114;28;20211;-88
2021/05/01 00:46:24;;;;;;;32.93;27.93;;;5.30;90.80;;;;;;5056137;28;20196;-88
2021/05/01 00:48:50;;;;;;;35.10;28.23;;;5.30;90.80;;;;;;5056157;28;20176;-88
2021/05/01 00:51:16;;;;;;;36.20;29.13;;;5.30;90.80;;;;;;5055170;28;20271;-88
2021/05/01 00:53:41;;;;;;;34.83;28.00;;;5.30;90.80;;;;;;5054841;28;20180;-89
2021/05/01 00:56:08;;;;;;;42.63;28.53;;;5.30;90.80;;;;;;5054755;28;20661;-88
2021/05/01 00:58:34;;;;;;;38.63;28.40;;;5.30;90.80;;;;;;5055967;28;20179;-88
2021/05/01 01:03:25;;;;;;;38.97;29.07;;;5.30;90.90;;;;;;5055004;28;20200;-87
2021/05/01 01:05:51;;;;;;;36.37;29.00;;;5.30;91.00;;;;;;5054621;28;20249;-88
2021/05/01 01:08:16;;;;;;;39.73;29.13;;;5.30;91.10;;;;;;5054593;28;20168;-88
2021/05/01 01:10:43;;;;;;;36.13;29.53;;;5.40;91.20;;;;;;5055746;28;20528;-89
2021/05/01 01:13:08;;;;;;;33.40;29.07;;;5.40;91.20;;;;;;5054519;28;20176;-89
2021/05/01 01:15:34;;;;;;;32.97;27.83;;;5.40;91.10;;;;;;5055642;28;20601;-89
2021/05/01 01:18:00;;;;;;;32.43;27.73;;;5.40;91.10;;;;;;5054410;28;20176;-89
2021/05/01 01:20:26;;;;;;;34.03;27.13;;;5.50;91.00;;;;;;5054342;28;20177;-89
2021/05/01 01:22:53;;;;;;;33.97;26.30;;;5.40;91.00;;;;;;5054304;28;20276;-89
2021/05/01 01:25:19;;;;;;;28.40;24.77;;;5.40;90.90;;;;;;5054206;28;20238;-89
2021/05/01 01:27:46;;;;;;;28.77;22.93;;;5.40;90.80;;;;;;5054230;28;20211;-89
2021/05/01 01:30:14;;;;;;;30.13;24.70;;;5.40;90.80;;;;;;5055467;28;20178;-89
2021/05/01 01:32:40;;;;;;;29.67;24.60;;;5.40;90.80;;;;;;5054456;28;20208;-89
2021/05/01 01:35:08;;;;;;;30.00;22.03;;;5.30;90.80;;;;;;5055302;28;20571;-89
2021/05/01 01:37:36;;;;;;;27.93;22.67;;;5.30;90.80;;;;;;5055308;28;20193;-89
2021/05/01 01:40:03;;;;;;;28.03;22.43;;;5.40;90.80;;;;;;5054381;28;20186;-89
2021/05/01 01:42:28;;;;;;;27.97;21.63;;;5.40;90.80;;;;;;5053903;28;20232;-89
2021/05/01 01:44:54;;;;;;;23.63;20.20;;;5.30;90.50;;;;;;5053763;28;20217;-89
2021/05/01 01:47:19;;;;;;;24.70;20.47;;;5.30;90.40;;;;;;5054722;28;20579;-89
2021/05/01 01:49:45;;;;;;;25.43;19.27;;;5.30;90.30;;;;;;5055477;28;20634;-89
2021/05/01 01:52:11;;;;;;;27.83;20.20;;;5.30;90.10;;;;;;5055162;28;20182;-89
2021/05/01 01:54:36;;;;;;;22.20;18.83;;;5.20;90.00;;;;;;5053689;28;20640;-89
2021/05/01 01:57:02;;;;;;;26.30;19.20;;;5.10;90.00;;;;;;5055209;28;20211;-89
2021/05/01 01:59:29;;;;;;;26.73;19.33;;;5.00;90.10;;;;;;5054855;28;20267;-89
2021/05/01 02:01:54;;;;;;;23.13;19.63;;;4.90;90.30;;;;;;5053647;28;20188;-89
2021/05/01 02:04:20;;;;;;;21.20;18.37;;;4.80;90.40;;;;;;5053886;28;20209;-89
2021/05/01 02:06:46;;;;;;;28.93;20.00;;;4.90;90.50;;;;;;5054663;28;20270;-89
2021/05/01 02:09:12;;;;;;;24.67;19.60;;;4.90;90.50;;;;;;5054737;28;20272;-89
2021/05/01 02:11:38;;;;;;;20.80;18.13;;;5.00;90.50;;;;;;5053378;28;20205;-89
2021/05/01 02:14:04;;;;;;;18.20;15.93;;;5.00;90.40;;;;;;5053271;28;20196;-89
2021/05/01 02:16:31;;;;;;;21.87;16.70;;;5.00;90.20;;;;;;5054494;28;20734;-89
2021/05/01 02:18:57;;;;;;;20.03;17.60;;;5.00;90.00;;;;;;5053407;28;20177;-89
2021/05/01 02:21:22;;;;;;;22.00;18.57;;;5.10;89.80;;;;;;5053283;28;20247;-89
2021/05/01 02:23:49;;;;;;;29.63;18.07;;;4.90;89.90;;;;;;5054279;28;20710;-89
2021/05/01 02:26:15;;;;;;;21.40;17.53;;;4.90;90.00;;;;;;5054313;28;20199;-89
2021/05/01 02:28:41;;;;;;;23.23;17.63;;;4.80;89.90;;;;;;5053095;28;20226;-89
2021/05/01 02:31:06;;;;;;;21.90;18.37;;;4.80;89.90;;;;;;5053093;28;20550;-89
2021/05/01 02:33:32;;;;;;;21.57;16.73;;;4.80;90.00;;;;;;5053049;28;20253;-89
2021/05/01 02:35:58;;;;;;;20.70;16.30;;;4.80;90.00;;;;;;5052879;28;20219;-89
2021/05/01 02:38:23;;;;;;;20.37;17.10;;;4.90;90.00;;;;;;5052969;28;20692;-89
2021/05/01 02:40:49;;;;;;;21.03;16.47;;;5.00;89.80;;;;;;5054131;28;20314;-89
2021/05/01 02:43:15;;;;;;;24.70;16.33;;;5.00;89.60;;;;;;5052738;28;20225;-89
2021/05/01 02:45:41;;;;;;;20.33;17.10;;;4.90;89.60;;;;;;5052734;28;20669;-89
2021/05/01 02:48:07;;;;;;;19.70;17.43;;;4.80;89.80;;;;;;5052712;28;20183;-89
2021/05/01 02:50:32;;;;;;;21.43;18.50;;;4.80;90.00;;;;;;5052673;28;20183;-89
2021/05/01 02:52:58;;;;;;;23.67;17.60;;;4.70;90.30;;;;;;5053906;28;20172;-89
2021/05/01 02:55:24;;;;;;;19.30;17.23;;;4.70;90.40;;;;;;5052635;28;20237;-89
2021/05/01 02:57:51;;;;;;;19.87;17.30;;;4.70;90.50;;;;;;5052540;28;20234;-89
2021/05/01 03:00:20;;;;;;;23.40;16.43;;;4.60;90.70;;;;;;5053001;28;20187;-89
2021/05/01 03:02:45;;;;;;;24.83;18.50;;;4.50;90.80;;;;;;5052525;28;20218;-89
2021/05/01 03:05:13;;;;;;;25.50;18.93;;;4.50;91.20;;;;;;5052305;28;20645;-89
2021/05/01 03:07:39;;;;;;;21.77;17.83;;;4.50;91.40;;;;;;5053939;28;20176;-89
2021/05/01 03:10:13;;;;;;;20.30;17.77;;;4.50;91.50;;;;;;5053642;28;20540;-89
2021/05/01 03:12:39;;;;;;;23.80;19.47;;;4.50;91.70;;;;;;5052250;28;20266;-89
2021/05/01 03:15:07;;;;;;;25.77;20.00;;;4.60;91.80;;;;;;5052258;28;20273;-89
2021/05/01 03:17:32;;;;;;;24.27;20.43;;;4.60;91.90;;;;;;5052175;28;20190;-89
2021/05/01 03:19:58;;;;;;;30.67;20.87;;;4.70;92.00;;;;;;5052553;28;20183;-89
2021/05/01 03:22:24;;;;;;;30.33;22.33;;;4.90;92.30;;;;;;5053438;28;20180;-89
2021/05/01 03:24:52;;;;;;;28.17;22.00;;;5.00;92.30;;;;;;5051680;28;20204;-89
2021/05/01 03:27:17;;;;;;;26.83;21.43;;;5.10;92.30;;;;;;5051861;28;20176;-89
2021/05/01 03:29:43;;;;;;;30.67;20.80;;;5.20;92.30;;;;;;5052137;28;20234;-89
2021/05/01 03:32:09;;;;;;;30.53;20.80;;;5.20;92.20;;;;;;5053890;28;20160;-89
2021/05/01 03:34:34;;;;;;;25.00;19.97;;;5.20;92.20;;;;;;5052000;28;20667;-89
2021/05/01 03:37:00;;;;;;;27.23;20.70;;;5.20;92.20;;;;;;5053041;28;20211;-89
2021/05/01 03:39:26;;;;;;;23.07;19.67;;;5.20;92.20;;;;;;5053226;28;20673;-89
2021/05/01 03:41:52;;;;;;;24.63;20.50;;;5.30;92.20;;;;;;5051835;28;20711;-89
2021/05/01 03:44:17;;;;;;;24.43;20.13;;;5.30;92.30;;;;;;5051885;28;20254;-89
2021/05/01 03:46:43;;;;;;;26.50;20.73;;;5.40;92.40;;;;;;5053027;28;20192;-89
2021/05/01 03:49:09;;;;;;;22.20;18.53;;;5.50;92.40;;;;;;5051791;28;20579;-89
2021/05/01 03:51:34;;;;;;;25.23;19.97;;;5.70;92.40;;;;;;5051808;28;20187;-89
2021/05/01 03:54:00;;;;;;;29.03;22.10;;;5.80;92.30;;;;;;5053050;28;20200;-89
2021/05/01 03:56:26;;;;;;;25.90;21.10;;;5.90;92.30;;;;;;5052050;28;20199;-89
2021/05/01 03:58:52;;;;;;;26.07;20.33;;;6.00;92.20;;;;;;5051756;28;20194;-89
2021/05/01 04:01:17;;;;;;;22.40;18.37;;;6.00;92.20;;;;;;5051651;28;20268;-89
2021/05/01 04:03:43;;;;;;;22.77;18.73;;;6.10;92.10;;;;;;5051819;28;20250;-89
2021/05/01 04:06:09;;;;;;;22.77;18.33;;;6.10;92.00;;;;;;5051699;28;20191;-89
2021/05/01 04:08:37;;;;;;;23.23;18.37;;;6.20;91.90;;;;;;5051753;28;20189;-89
2021/05/01 04:11:03;;;;;;;22.50;18.20;;;6.30;91.80;;;;;;5053007;28;20224;-89
2021/05/01 04:13:28;;;;;;;23.93;17.93;;;6.30;91.80;;;;;;5052833;28;20186;-89
2021/05/01 04:15:54;;;;;;;19.87;17.17;;;6.30;91.80;;;;;;5051593;28;20227;-89
2021/05/01 04:18:21;;;;;;;21.07;16.87;;;6.30;91.80;;;;;;5052788;28;20213;-89
2021/05/01 04:20:47;;;;;;;17.90;15.87;;;6.30;91.80;;;;;;5052790;28;20196;-89
2021/05/01 04:23:13;;;;;;;21.83;16.37;;;6.30;91.80;;;;;;5051423;28;20563;-89
2021/05/01 04:25:39;;;;;;;16.37;14.63;;;6.40;91.60;;;;;;5051433;28;20199;-89
2021/05/01 04:28:05;;;;;;;18.30;15.20;;;6.50;91.40;;;;;;5051488;28;20194;-89
2021/05/01 04:30:32;;;;;;;19.10;15.97;;;6.60;91.00;;;;;;5051459;28;20179;-89
2021/05/01 04:32:57;;;;;;;18.77;14.97;;;6.70;90.60;;;;;;5051488;28;20183;-89
2021/05/01 04:35:23;;;;;;;17.50;14.27;;;6.80;90.30;;;;;;5158805;22;20223;-86
2021/05/01 04:37:49;;;;;;;16.60;13.43;;;6.80;90.20;;;;;;5055700;28;20168;-87
2021/05/01 04:40:15;;;;;;;19.27;15.07;;;6.80;90.10;;;;;;5056492;28;20250;-86
2021/05/01 04:42:47;;;;;;;18.23;15.13;;;6.90;90.00;;;;;;5055240;28;20655;-87
2021/05/01 04:45:14;;;;;;;21.87;14.33;;;6.90;89.70;;;;;;5056225;28;20282;-87
2021/05/01 04:47:40;;;;;;;16.50;14.37;;;7.00;89.50;;;;;;5056331;28;20166;-87
2021/05/01 04:50:07;;;;;;;19.47;14.37;;;7.10;89.30;;;;;;5054984;28;20655;-87
2021/05/01 04:52:32;;;;;;;16.27;13.47;;;7.10;89.20;;;;;;5056173;28;20179;-87
2021/05/01 04:55:07;;;;;;;15.73;13.27;;;7.10;89.10;;;;;;5054986;28;20633;-87
2021/05/01 04:57:32;;;;;;;15.37;13.57;;;7.10;88.70;;;;;;5054862;28;20209;-87
2021/05/01 04:59:58;;;;;;;14.87;13.27;;;7.20;88.60;;;;;;5054814;28;20187;-87
2021/05/01 05:02:23;;;;;;;15.73;13.93;;;7.20;88.50;;;;;;5054825;28;20186;-87
2021/05/01 05:04:49;;;;;;;19.27;14.60;;;7.20;88.60;;;;;;5055852;28;20202;-87
2021/05/01 05:07:15;;;;;;;18.57;14.43;;;7.20;88.70;;;;;;5055789;28;20191;-87
2021/05/01 05:09:40;;;;;;;19.43;15.90;;;7.30;88.70;;;;;;5055986;28;20171;-87
2021/05/01 05:12:06;;;;;;;19.00;14.00;;;7.30;88.60;;;;;;5054636;28;20706;-87
2021/05/01 05:14:31;;;;;;;18.70;13.63;;;7.30;88.30;;;;;;5054479;28;20183;-87
2021/05/01 05:16:57;;;;;;;20.50;14.13;;;7.30;87.90;;;;;;5054564;28;20196;-87
2021/05/01 05:19:23;;;;;;;15.03;13.50;;;7.40;87.90;;;;;;5055636;28;20611;-87
2021/05/01 05:21:48;;;;;;;16.70;13.50;;;7.40;87.30;;;;;;5054470;28;20188;-87
2021/05/01 05:24:14;;;;;;;18.10;13.63;;;7.50;87.40;;;;;;5055474;28;20239;-87
2021/05/01 05:26:39;;;;;;;15.87;12.40;;;7.50;87.00;;;;;;5054226;28;20195;-87
2021/05/01 05:29:05;;;;;;;17.43;12.10;;;7.50;87.00;;;;;;5054262;28;20167;-87
2021/05/01 05:31:31;;;;;;;16.43;13.67;;;7.50;86.70;;;;;;5055750;28;20195;-88
2021/05/01 05:33:56;;;;;;;15.60;13.03;;;7.60;86.70;;;;;;5054219;28;20180;-87
2021/05/01 05:36:22;;;;;;;15.70;13.43;;;7.60;86.80;;;;;;5055284;28;20242;-87
2021/05/01 05:38:47;;;;;;;17.43;13.80;;;7.60;87.00;;;;;;5054217;28;20662;-87
2021/05/01 05:41:13;;;;;;;19.50;12.97;;;7.60;87.20;;;;;;5054017;28;20176;-87
2021/05/01 05:43:39;;;;;;;17.13;13.60;;;7.50;87.20;;;;;;5053887;28;20242;-87
2021/05/01 05:46:14;;;;;;;15.23;12.93;;;7.50;87.40;;;;;;5053875;28;20198;-87
2021/05/01 05:48:40;;;;;;;17.00;13.80;;;7.50;87.60;;;;;;5053342;28;20171;-87
2021/05/01 05:51:06;;;;;;;14.17;12.67;;;7.60;87.80;;;;;;5053915;28;20225;-87
2021/05/01 05:53:32;;;;;;;14.83;12.57;;;7.60;87.90;;;;;;5055017;28;20612;-87
2021/05/01 05:55:58;;;;;;;18.83;14.57;;;7.60;87.80;;;;;;5055266;28;20202;-87
2021/05/01 05:58:24;;;;;;;18.97;12.87;;;7.60;87.60;;;;;;5053698;28;20248;-87
2021/05/01 06:00:50;;;;;;;16.93;13.90;;;7.60;87.70;;;;;;5054982;28;20540;-87
2021/05/01 06:03:17;;;;;;;18.80;14.17;;;7.60;87.70;;;;;;5054828;28;20172;-87
2021/05/01 06:05:48;;;;;;;16.53;13.53;;;7.60;87.90;;;;;;5053546;28;20229;-87
2021/05/01 06:08:16;;;;;;;19.47;13.47;;;7.70;87.50;;;;;;5053680;28;20176;-87
2021/05/01 06:10:44;;;;;;;19.73;14.17;;;7.70;87.40;;;;;;5054769;28;20649;-87
2021/05/01 06:13:13;;;;;;;16.97;13.33;;;7.70;87.20;;;;;;5054734;28;20200;-87
2021/05/01 06:15:39;;;;;;;18.50;13.27;;;7.70;87.00;;;;;;5054650;28;20198;-87
2021/05/01 06:18:06;;;;;;;15.53;12.80;;;7.70;86.70;;;;;;5054829;28;20175;-87
2021/05/01 06:20:33;;;;;;;20.77;13.97;;;7.70;86.60;;;;;;5053314;28;20183;-87
2021/05/01 06:23:02;;;;;;;19.23;13.47;;;7.70;86.50;;;;;;5054494;28;20179;-87
2021/05/01 06:25:29;;;;;;;24.20;13.43;;;7.70;86.30;;;;;;5052968;28;20304;-87
2021/05/01 06:27:54;;;;;;;16.67;13.30;;;7.70;86.50;;;;;;5054405;28;20168;-87
2021/05/01 06:30:22;;;;;;;17.03;13.57;;;7.70;86.10;;;;;;5053172;28;20660;-87
2021/05/01 06:32:49;;;;;;;19.10;13.43;;;7.70;86.40;;;;;;5053271;28;20182;-87
2021/05/01 06:35:15;;;;;;;17.37;13.37;;;7.70;86.20;;;;;;5054120;28;20362;-87
2021/05/01 06:37:41;;;;;;;16.33;12.73;;;7.70;86.20;;;;;;5053157;28;20624;-88
2021/05/01 06:40:16;;;;;;;19.47;13.50;;;7.70;86.00;;;;;;5054160;28;20183;-87
2021/05/01 06:42:54;;;;;;;16.10;12.60;;;7.80;86.10;;;;;;5053535;28;20179;-87
2021/05/01 06:45:21;;;;;;;15.53;12.87;;;7.80;85.40;;;;;;5053993;28;20187;-87
2021/05/01 06:47:52;;;;;;;16.50;13.27;;;7.80;85.40;;;;;;5053986;28;20172;-87
2021/05/01 06:50:21;;;;;;;21.77;13.20;;;7.90;85.70;;;;;;5052974;28;20172;-87
2021/05/01 06:52:47;;;;;;;19.17;12.97;;;7.90;85.50;;;;;;5053891;28;20164;-87
2021/05/01 06:55:16;;;;;;;17.37;12.53;;;7.90;86.00;;;;;;5052505;28;20183;-88
2021/05/01 06:57:50;;;;;;;20.40;13.30;;;7.90;85.60;;;;;;5052663;28;20176;-87
2021/05/01 07:00:18;;;;;;;18.97;13.00;;;8.00;85.70;;;;;;5051742;28;20312;-87
2021/05/01 07:02:46;;;;;;;18.87;13.23;;;8.00;85.50;;;;;;5053792;28;20172;-88
2021/05/01 07:05:22;;;;;;;16.53;12.37;;;8.10;85.80;;;;;;5053524;28;20220;-88
2021/05/01 07:07:48;;;;;;;15.53;12.00;;;8.20;86.00;;;;;;5052480;28;20527;-87
2021/05/01 07:10:15;;;;;;;14.87;11.47;;;8.20;84.70;;;;;;5052447;28;20182;-87
2021/05/01 07:12:42;;;;;;;14.60;12.03;;;8.30;83.90;;;;;;5052421;28;20176;-87
2021/05/01 07:15:09;;;;;;;14.67;11.43;;;8.30;84.40;;;;;;5053556;28;20177;-88
2021/05/01 07:17:36;;;;;;;12.90;11.03;;;8.30;83.60;;;;;;5052287;28;20179;-88
2021/05/01 07:20:05;;;;;;;15.00;11.40;;;8.40;83.70;;;;;;5053767;28;20255;-87
2021/05/01 07:22:30;;;;;;;16.80;11.63;;;8.40;82.80;;;;;;5053412;28;20668;-87
2021/05/01 07:24:57;;;;;;;12.27;10.43;;;8.40;82.30;;;;;;5053289;28;20187;-87
2021/05/01 07:27:33;;;;;;;15.93;11.00;;;8.50;82.70;;;;;;5051993;28;20196;-87
2021/05/01 07:30:02;;;;;;;15.70;12.07;;;8.50;82.70;;;;;;5052056;28;20172;-87
2021/05/01 07:32:32;;;;;;;13.80;11.03;;;8.60;83.10;;;;;;5052010;28;20641;-88
2021/05/01 07:35:01;;;;;;;13.73;11.03;;;8.70;82.60;;;;;;5052058;28;20176;-87
2021/05/01 07:37:29;;;;;;;16.53;10.87;;;8.70;83.10;;;;;;5051744;28;20213;-87
2021/05/01 07:39:56;;;;;;;17.03;11.93;;;8.80;82.80;;;;;;5052099;28;20208;-87
2021/05/01 07:42:22;;;;;;;13.23;10.97;;;8.90;82.90;;;;;;5053052;28;20172;-87
2021/05/01 07:44:52;;;;;;;13.43;10.70;;;8.90;82.50;;;;;;5053146;28;20231;-87
2021/05/01 07:47:22;;;;;;;15.30;10.70;;;8.90;81.20;;;;;;5051808;28;20215;-87
2021/05/01 07:49:49;;;;;;;15.90;9.97;;;8.90;81.40;;;;;;5053184;28;20225;-87
2021/05/01 07:52:17;;;;;;;19.17;10.17;;;8.90;81.20;;;;;;5053138;28;20179;-87
2021/05/01 07:54:43;;;;;;;13.00;10.00;;;9.00;80.90;;;;;;5053318;28;20540;-87
2021/05/01 07:57:10;;;;;;;12.87;10.30;;;9.00;80.60;;;;;;5051712;28;20326;-87
2021/05/01 07:59:36;;;;;;;15.50;10.30;;;9.10;81.00;;;;;;5051780;28;20175;-87
2021/05/01 08:02:06;;;;;;;13.27;9.87;;;9.20;80.30;;;;;;5051895;28;20321;-87
2021/05/01 08:04:32;;;;;;;11.33;8.43;;;9.20;80.10;;;;;;5051891;28;20199;-87
2021/05/01 08:06:59;;;;;;;13.57;10.63;;;9.20;78.70;;;;;;5051597;28;20192;-87
2021/05/01 08:09:25;;;;;;;10.97;9.57;;;9.30;79.60;;;;;;5051758;28;20223;-87
2021/05/01 08:11:51;;;;;;;10.80;9.57;;;9.30;78.20;;;;;;5052895;28;20160;-88
2021/05/01 08:14:17;;;;;;;15.47;9.87;;;9.40;78.30;;;;;;5055745;28;20606;-87
2021/05/01 08:16:42;;;;;;;13.77;10.20;;;9.50;79.40;;;;;;5055660;28;20677;-87
2021/05/01 08:19:08;;;;;;;11.83;10.30;;;9.60;78.50;;;;;;5056905;28;20192;-87
2021/05/01 08:21:36;;;;;;;11.83;9.30;;;9.70;78.50;;;;;;5056779;28;20165;-87
2021/05/01 08:24:03;;;;;;;12.13;9.80;;;9.80;77.00;;;;;;5056753;28;20577;-87
2021/05/01 08:26:29;;;;;;;12.43;9.37;;;9.80;77.50;;;;;;5055337;28;20192;-88
2021/05/01 08:28:55;;;;;;;11.77;8.40;;;10.00;77.30;;;;;;5056768;28;20168;-87
2021/05/01 08:31:22;;;;;;;11.20;9.90;;;10.00;77.50;;;;;;5056998;28;20164;-87
2021/05/01 08:33:48;;;;;;;11.40;8.80;;;10.00;77.30;;;;;;5057120;28;20229;-87
2021/05/01 08:36:14;;;;;;;11.40;9.27;;;9.90;76.20;;;;;;5056494;28;20208;-87
2021/05/01 08:38:39;;;;;;;13.83;8.93;;;9.90;76.10;;;;;;5055238;28;20233;-88
2021/05/01 08:41:06;;;;;;;11.27;8.93;;;10.00;76.80;;;;;;5055290;28;20176;-88
2021/05/01 08:43:33;;;;;;;11.23;8.57;;;10.00;76.80;;;;;;5055008;28;20188;-87
2021/05/01 08:46:01;;;;;;;14.17;8.60;;;10.00;75.80;;;;;;5055100;28;20691;-88
2021/05/01 08:48:28;;;;;;;12.40;8.87;;;10.10;76.30;;;;;;5056546;28;20700;-87
2021/05/01 08:51:02;;;;;;;14.70;8.93;;;10.30;75.60;;;;;;5055021;28;20174;-87
2021/05/01 08:53:28;;;;;;;13.60;9.10;;;10.30;74.00;;;;;;5055033;28;20172;-87
2021/05/01 08:55:54;;;;;;;12.67;8.30;;;10.30;75.40;;;;;;5055419;28;20601;-88
2021/05/01 08:58:20;;;;;;;12.30;8.10;;;10.40;74.30;;;;;;5055932;28;20172;-87
2021/05/01 09:00:48;;;;;;;10.37;8.33;;;10.50;73.70;;;;;;5056269;28;20175;-87
2021/05/01 09:03:15;;;;;;;11.07;8.40;;;10.60;74.70;;;;;;5055186;28;20705;-88
2021/05/01 09:05:42;;;;;;;11.90;9.67;;;10.70;73.40;;;;;;5054580;28;20208;-88
2021/05/01 09:08:09;;;;;;;11.10;8.17;;;10.90;75.70;;;;;;5054694;28;20545;-88
2021/05/01 09:10:45;;;;;;;10.37;8.03;;;11.20;73.10;;;;;;5054616;28;20176;-88
2021/05/01 09:13:17;;;;;;;11.10;8.13;;;11.60;74.40;;;;;;5054610;28;20226;-87
2021/05/01 09:16:02;;;;;;;8.40;6.60;;;11.70;71.10;;;;;;5054485;28;20290;-88
2021/05/01 09:18:41;;;;;;;11.40;8.60;;;11.30;70.00;;;;;;5055896;28;20309;-88
2021/05/01 09:21:16;;;;;;;8.03;7.13;;;11.30;73.40;;;;;;5055738;28;20152;-88
2021/05/01 09:23:42;;;;;;;12.13;8.77;;;11.60;69.60;;;;;;5053466;28;20207;-88
2021/05/01 09:26:08;;;;;;;11.57;8.63;;;11.70;71.90;;;;;;5055688;28;20211;-88
2021/05/01 09:28:45;;;;;;;9.30;8.30;;;11.50;69.30;;;;;;5055655;28;20176;-88
2021/05/01 09:31:16;;;;;;;10.03;8.13;;;11.50;70.30;;;;;;5054357;28;20168;-88
2021/05/01 09:33:44;;;;;;;11.47;9.03;;;11.70;68.50;;;;;;5054395;28;20718;-88
2021/05/01 09:36:16;;;;;;;10.27;7.77;;;11.70;70.50;;;;;;5055469;28;20211;-88
2021/05/01 09:38:47;;;;;;;8.60;7.80;;;12.00;67.10;;;;;;5054460;28;20182;-88
2021/05/01 09:41:25;;;;;;;11.87;8.30;;;12.00;68.50;;;;;;5055345;28;20182;-88
2021/05/01 09:43:55;;;;;;;10.37;8.83;;;11.90;68.70;;;;;;5054765;28;20294;-88
2021/05/01 09:46:20;;;;;;;12.67;9.13;;;12.10;70.40;;;;;;5053933;28;20676;-87
2021/05/01 09:49:05;;;;;;;11.00;9.23;;;12.30;70.00;;;;;;5054058;28;20172;-87
2021/05/01 09:51:55;;;;;;;11.37;9.50;;;12.40;68.10;;;;;;5054049;28;20259;-87
2021/05/01 09:54:25;;;;;;;11.20;9.00;;;12.30;67.10;;;;;;5053945;28;20173;-87
2021/05/01 09:56:52;;;;;;;13.87;10.97;;;12.20;68.80;;;;;;5053749;28;20291;-88
2021/05/01 09:59:18;;;;;;;12.67;9.37;;;12.20;66.20;;;;;;5053800;28;20199;-87
2021/05/01 10:01:58;;;;;;;10.07;8.83;;;12.20;67.30;;;;;;5054997;28;20645;-86
2021/05/01 10:04:24;;;;;;;12.60;10.70;;;12.30;68.10;;;;;;5053642;28;20199;-88
2021/05/01 10:07:00;;;;;;;11.17;10.07;;;12.30;68.60;;;;;;5053537;28;20215;-87
2021/05/01 10:09:31;;;;;;;13.00;10.27;;;12.20;66.50;;;;;;5053538;28;20181;-87
2021/05/01 10:12:03;;;;;;;11.40;9.57;;;12.10;68.00;;;;;;5053594;28;20234;-87
2021/05/01 10:14:40;;;;;;;12.10;8.87;;;12.30;67.60;;;;;;5054761;28;20175;-87
2021/05/01 10:17:06;;;;;;;10.77;9.67;;;12.30;66.90;;;;;;5054660;28;20187;-87
2021/05/01 10:20:05;;;;;;;13.80;11.33;;;12.60;67.50;;;;;;5054627;28;20172;-88
2021/05/01 10:22:40;;;;;;;15.33;12.30;;;13.10;67.00;;;;;;5046569;28;20586;-88
2021/05/01 10:25:10;;;;;;;13.03;11.37;;;13.20;64.90;;;;;;5053273;28;20199;-88
2021/05/01 10:28:15;;;;;;;16.83;12.27;;;13.40;65.40;;;;;;5054509;28;20191;-88
2021/05/01 10:30:54;;;;;;;11.50;10.33;;;13.50;63.60;;;;;;5054063;28;20242;-87
2021/05/01 10:36:25;;;;;;;11.80;9.47;;;13.30;61.40;;;;;;5054180;28;20196;-88
2021/05/01 10:39:05;;;;;;;11.47;10.37;;;12.80;61.60;;;;;;5052937;28;20267;-87
2021/05/01 10:41:32;;;;;;;10.70;9.60;;;12.90;66.80;;;;;;5053015;28;20202;-87
2021/05/01 10:43:59;;;;;;;12.37;10.07;;;13.10;62.50;;;;;;5053678;28;20192;-87
2021/05/01 10:46:28;;;;;;;10.97;9.40;;;13.00;61.30;;;;;;5052639;28;20219;-87
2021/05/01 10:48:59;;;;;;;11.63;10.47;;;12.90;62.80;;;;;;5054190;28;20195;-87
2021/05/01 10:51:27;;;;;;;11.23;9.97;;;13.20;62.70;;;;;;5054067;28;20168;-87
2021/05/01 10:54:15;;;;;;;11.17;10.07;;;13.40;61.90;;;;;;5054166;28;20187;-88
2021/05/01 10:56:44;;;;;;;12.67;10.43;;;13.50;61.60;;;;;;5054492;28;20196;-86
2021/05/01 10:59:15;;;;;;;11.33;10.10;;;13.70;62.90;;;;;;5053791;28;20172;-86
2021/05/01 11:01:49;;;;;;;11.37;10.13;;;13.70;60.60;;;;;;5053831;28;20214;-86
2021/05/01 11:04:24;;;;;;;14.40;10.37;;;13.50;59.80;;;;;;5053914;28;20188;-86
2021/05/01 11:06:52;;;;;;;10.37;9.37;;;13.70;65.30;;;;;;5053714;28;20191;-86
2021/05/01 11:09:41;;;;;;;10.23;9.20;;;13.80;63.30;;;;;;5053710;28;20273;-87
2021/05/01 11:12:13;;;;;;;10.73;9.00;;;13.60;61.70;;;;;;5052360;28;20261;-87
2021/05/01 11:15:07;;;;;;;14.13;10.40;;;13.50;62.90;;;;;;5053586;28;20172;-86
2021/05/01 11:17:33;;;;;;;9.97;8.97;;;13.20;62.00;;;;;;5051646;28;20204;-86
2021/05/01 11:20:02;;;;;;;11.23;9.53;;;12.90;59.30;;;;;;5053539;28;20225;-86
2021/05/01 11:22:28;;;;;;;14.20;9.53;;;12.80;60.70;;;;;;5053525;28;20313;-86
2021/05/01 11:24:57;;;;;;;10.90;9.80;;;12.80;61.80;;;;;;5052055;28;20204;-86
2021/05/01 11:27:23;;;;;;;13.63;10.53;;;12.80;63.40;;;;;;5053305;28;20254;-86
2021/05/01 11:29:50;;;;;;;10.10;9.10;;;13.00;62.80;;;;;;5053413;28;20297;-86
2021/05/01 11:32:18;;;;;;;13.23;10.90;;;13.30;63.10;;;;;;5052217;28;20171;-86
2021/05/01 11:34:51;;;;;;;12.00;10.60;;;13.20;59.70;;;;;;5053337;28;20171;-86
2021/05/01 11:37:18;;;;;;;10.73;9.63;;;13.40;62.10;;;;;;5052135;28;20325;-84
2021/05/01 11:39:48;;;;;;;10.93;9.83;;;13.20;61.70;;;;;;5053562;28;20521;-86
2021/05/01 11:42:21;;;;;;;12.07;10.37;;;13.00;60.00;;;;;;5053340;28;20178;-86
2021/05/01 11:44:49;;;;;;;11.83;9.90;;;13.00;60.00;;;;;;5053170;28;20591;-86
2021/05/01 11:47:17;;;;;;;11.97;10.77;;;13.00;60.60;;;;;;5052899;28;20180;-86
2021/05/01 11:49:43;;;;;;;10.60;9.50;;;12.80;59.20;;;;;;5051951;28;20238;-86
2021/05/01 11:52:33;;;;;;;11.60;10.40;;;12.70;60.10;;;;;;5052183;28;20182;-86
2021/05/01 11:55:24;;;;;;;10.50;9.00;;;12.70;59.70;;;;;;5053270;28;20165;-87
2021/05/01 11:57:59;;;;;;;10.30;9.30;;;12.70;60.00;;;;;;5053166;28;20217;-86
2021/05/01 12:00:36;;;;;;;11.47;9.80;;;12.60;60.90;;;;;;5053113;28;20178;-86
2021/05/01 12:03:20;;;;;;;10.63;9.57;;;12.70;61.20;;;;;;5051813;28;20174;-86
2021/05/01 12:05:52;;;;;;;10.80;9.67;;;12.60;61.80;;;;;;5053068;28;20204;-86
2021/05/01 12:08:23;;;;;;;10.60;9.60;;;12.70;63.40;;;;;;5053004;28;20235;-86
2021/05/01 12:10:53;;;;;;;11.73;10.53;;;12.80;66.20;;;;;;5051734;28;20202;-86
2021/05/01 12:13:36;;;;;;;11.43;10.23;;;12.70;63.70;;;;;;5051600;28;20172;-86
2021/05/01 12:16:04;;;;;;;10.13;9.23;;;12.70;63.10;;;;;;5052861;28;20559;-86
2021/05/01 12:18:49;;;;;;;13.30;9.43;;;12.70;60.80;;;;;;5052889;28;20164;-86
2021/05/01 12:21:29;;;;;;;9.73;8.83;;;12.80;61.60;;;;;;5052705;28;20168;-86
2021/05/01 12:23:58;;;;;;;14.37;11.07;;;12.80;61.50;;;;;;5051434;28;20195;-86
2021/05/01 12:26:33;;;;;;;13.50;10.43;;;12.80;63.10;;;;;;5052681;28;20614;-86
2021/05/01 12:29:17;;;;;;;11.40;10.20;;;12.80;61.20;;;;;;5051483;28;20180;-87
2021/05/01 12:31:44;;;;;;;11.53;10.30;;;12.90;61.00;;;;;;5052767;28;20178;-86
2021/05/01 12:34:10;;;;;;;12.30;11.10;;;12.80;62.10;;;;;;5052762;28;20168;-87
2021/05/01 12:36:41;;;;;;;12.00;10.70;;;12.80;62.70;;;;;;5052489;28;20295;-86
2021/05/01 12:39:09;;;;;;;11.60;10.40;;;12.60;63.50;;;;;;5052876;28;20153;-86
2021/05/01 12:41:40;;;;;;;12.53;10.30;;;12.50;64.20;;;;;;5052690;28;20263;-86
2021/05/01 12:44:07;;;;;;;18.97;13.97;;;12.40;64.10;;;;;;5051389;28;20192;-86
2021/05/01 12:46:41;;;;;;;20.93;15.40;;;12.00;70.00;;;;;;5051137;28;20681;-86